Nearby METAR Reports

 

KPMD - Palmdale, California, USA
Distance from station: NNE 12mi, 19km
Updated: Tue, 28-Feb-2017 7:53am PST
Clear
Clear
 Wind from W
Wind: W 18 mph , 30 km/h
Temperature: 41°F , 5°C
Wind Chill: 32°F , 0°C
Dew Point: 27°F , -3°C
Humidity: 57%
Barometer: 30.05 inHg , 1017.6 hPa
Clouds: Clear
Visibility: 10 miles , 16 km
2017/02/28 15:53 KPMD 281553Z AUTO 28016KT 10SM CLR 05/M03 A3005 RMK AO2 SLP177 T00501028
KWJF - Lancaster/Fox, California, USA
Distance from station: N 17mi, 27km
Updated: Tue, 28-Feb-2017 7:56am PST
Clear
Clear
 Wind from W
Wind: W 20 mph , 31 km/h
Temperature: 43°F , 6°C
Wind Chill: 34°F , 1°C
Dew Point: 28°F , -2°C
Humidity: 57%
Barometer: 30.05 inHg , 1017.6 hPa
Clouds: Clear
Visibility: 10 miles , 16 km
2017/02/28 15:56 KWJF 281556Z 28017KT 10SM CLR 06/M02 A3005 RMK AO2 SLP185 T00561022
 
KMWS - Mount Wilson, California, USA
Distance from station: SSE 18mi, 30km
Updated: Wed, 13-May-2015 6:45am PDT
NOT Current

 Wind from S
Wind: S 3 mph , 6 km/h, Gust: 5 mph , 7 km/h
Temperature: 43°F , 6°C
Dew Point: -0°F , -18°C
Humidity: 16%
2015/05/13 13:45 KMWS 131345Z 18003G04KT 06/M18 RMK SNOW DEPTH 1.00
KWHP - La / Whiteman, California, USA
Distance from station: SW 21mi, 34km
Updated: Tue, 28-Feb-2017 7:56am PST
Clear
Clear
 Wind from NW
Wind: NW 9 mph , 15 km/h
Temperature: 50°F , 10°C
Wind Chill: 46°F , 8°C
Dew Point: 27°F , -3°C
Humidity: 40%
Barometer: 30.07 inHg , 1018.3 hPa
Clouds: Clear
Visibility: 10 miles , 16 km
2017/02/28 15:56 KWHP 281556Z 32008KT 10SM SKC 10/M03 A3007
 
KBUR - Burbank, California, USA
Distance from station: SSW 22mi, 35km
Updated: Tue, 28-Feb-2017 8:21am PST
Clear
Clear
 Wind from SSE
Wind: SSE 6 mph , 9 km/h
Temperature: 52°F , 11°C
Dew Point: 30°F , -1°C
Humidity: 44%
Barometer: 30.06 inHg , 1017.9 hPa
Clouds: Clear
Visibility: 10 miles , 16 km
2017/02/28 16:21 KBUR 281621Z 15005KT 10SM CLR 11/M01 A3006 RMK AO2 T01061006
KVNY - Van Nuys, California, USA
Distance from station: SW 25mi, 40km
Updated: Tue, 28-Feb-2017 7:51am PST
Clear
Clear
 Wind from N
Wind: N 9 mph , 15 km/h
Temperature: 50°F , 10°C
Wind Chill: 46°F , 8°C
Dew Point: 28°F , -2°C
Humidity: 43%
Barometer: 30.04 inHg , 1017.3 hPa
Clouds: Clear
Visibility: 10 miles , 16 km
2017/02/28 15:51 KVNY 281551Z 01008KT 10SM CLR 10/M02 A3004 RMK AO2 SLP169 T01001017
 
KEDW - Edwards Afb, California, USA
Distance from station: NNE 33mi, 53km
Updated: Tue, 28-Feb-2017 7:58am PST
Few Clouds
Few Clouds
 Wind from SW
Wind: SW 9 mph , 15 km/h
Temperature: 41°F , 5°C
Wind Chill: 35°F , 2°C
Dew Point: 27°F , -3°C
Humidity: 57%
Barometer: 30.02 inHg , 1016.6 hPa
Clouds: Few Clouds
Visibility: 60 miles , 96 km
Cloud details: Few Clouds 5000 ft
Few Clouds 12000 ft
2017/02/28 15:58 KEDW 281558Z 22008KT 60SM FEW050 FEW120 05/M03 A3002 RMK AO2A SLP171 T00521026
KSMO - Santa Monica, California, USA
Distance from station: SSW 35mi, 57km
Updated: Tue, 28-Feb-2017 7:51am PST
Clear
Clear
 Wind from N
Wind: N 13 mph , 20 km/h, Gust: 20 mph , 31 km/h
Temperature: 54°F , 12°C
Dew Point: 27°F , -3°C
Humidity: 35%
Barometer: 30.04 inHg , 1017.3 hPa
Clouds: Clear
Visibility: 10 miles , 16 km
2017/02/28 15:51 KSMO 281551Z 36011G17KT 10SM CLR 12/M03 A3004 RMK AO2 SLP173 T01221028 $
 
KLAX - Los Angeles, California, USA
Distance from station: SSW 39mi, 63km
Updated: Tue, 28-Feb-2017 7:53am PST
Few Clouds
Few Clouds
 Wind from N
Wind: N 15 mph , 24 km/h, Gust: 22 mph , 35 km/h
Temperature: 54°F , 12°C
Dew Point: 28°F , -2°C
Humidity: 38%
Barometer: 30.04 inHg , 1017.3 hPa
Clouds: Few Clouds
Visibility: 10 miles , 16 km
Cloud details: Few Clouds 1400 ft
Few Clouds 4500 ft
2017/02/28 15:53 KLAX 281553Z 01013G19KT 10SM FEW014 FEW045 12/M02 A3004 RMK AO2 SLP173 T01221017
KMHV - Mojave, California, USA
Distance from station: N 41mi, 66km
Updated: Tue, 28-Feb-2017 8:20am PST
Clear
Clear
 Wind from WNW
Wind: WNW 24 mph , 39 km/h, Gust: 31 mph , 50 km/h
Temperature: 43°F , 6°C
Wind Chill: 34°F , 1°C
Dew Point: 25°F , -4°C
Humidity: 49%
Barometer: 30.02 inHg , 1016.6 hPa
Clouds: Clear
Visibility: 10 miles , 16 km
2017/02/28 16:20 KMHV 281620Z AUTO 29021G27KT 10SM CLR 06/M04 A3002 RMK A01
 
KFUL - Fullerton, California, USA
Distance from station: SSE 44mi, 70km
Updated: Tue, 28-Feb-2017 7:53am PST
Few Clouds
Few Clouds
 Wind from calm
Wind: Calm
Temperature: 50°F , 10°C
Dew Point: 48°F , 9°C
Humidity: 94%
Barometer: 30.04 inHg , 1017.3 hPa
Clouds: Few Clouds
Visibility: 10 miles , 16 km
Cloud details: Few Clouds 3000 ft
Few Clouds 20000 ft
2017/02/28 15:53 KFUL 281553Z 00000KT 10SM FEW030 FEW200 10/09 A3004 RMK AO2 SLP173 T01000089
KONT - Ontario, California, USA
Distance from station: SE 45mi, 72km
Updated: Tue, 28-Feb-2017 7:53am PST
Mist, Few clouds
Mist, Few clouds
 Wind from calm
Wind: Calm
Temperature: 48°F , 9°C
Dew Point: 46°F , 8°C
Humidity: 94%
Barometer: 30.04 inHg , 1017.3 hPa
Summary: Mist
Clouds: Few Clouds
Visibility: 4 miles , 6 km
Cloud details: Few Clouds 2800 ft
Few Clouds 5500 ft
2017/02/28 15:53 KONT 281553Z 00000KT 4SM BR FEW028 FEW055 09/08 A3004 RMK AO2 SLP173 VIS S 2 1/2 T00890078
 
KLGB - Long Beach, California, USA
Distance from station: S 46mi, 74km
Updated: Tue, 28-Feb-2017 7:53am PST
Clear
Clear
 Wind from calm
Wind: Calm
Temperature: 50°F , 10°C
Dew Point: 45°F , 7°C
Humidity: 82%
Barometer: 30.05 inHg , 1017.6 hPa
Clouds: Clear
Visibility: 8 miles , 13 km
2017/02/28 15:53 KLGB 281553Z 00000KT 8SM CLR 10/07 A3005 RMK AO2 SLP176 T01000067
KVCV - Victorville, California, USA
Distance from station: E 46mi, 74km
Updated: Tue, 28-Feb-2017 8:35am PST
Clear
Clear
 Wind from W
Wind: W 16 mph , 26 km/h
Temperature: 41°F , 5°C
Wind Chill: 33°F , 1°C
Dew Point: 27°F , -3°C
Humidity: 57%
Barometer: 30.05 inHg , 1017.6 hPa
Clouds: Clear
Visibility: 10 miles , 16 km
2017/02/28 16:35 KVCV 281635Z AUTO 27014KT 10SM CLR 05/M03 A3005 RMK AO2
 
KTSP - Tehachapi, California, USA
Distance from station: NNW 48mi, 77km
Updated: Tue, 28-Feb-2017 8:35am PST
Partly cloudy
Partly cloudy
 Wind from WNW
Wind: WNW 12 mph , 19 km/h
Temperature: 34°F , 1°C
Wind Chill: 25°F , -4°C
Dew Point: 30°F , -1°C
Humidity: 87%
Barometer: 30.07 inHg , 1018.3 hPa
Clouds: Partly cloudy
Visibility: 10 miles , 16 km
Cloud details: Few Clouds 1900 ft
Partly cloudy 2500 ft
2017/02/28 16:35 KTSP 281635Z AUTO 30010KT 10SM FEW019 SCT025 01/M01 A3007 RMK AO2